createdAt,value
2023-04-30T00:00:02.776Z,102010.75
2023-04-30T00:02:32.855Z,102009.41
2023-04-30T00:05:03.284Z,102014.03
2023-04-30T00:07:33.145Z,102007.03
2023-04-30T00:10:05.879Z,102013.56
2023-04-30T00:12:35.899Z,102009.78
2023-04-30T00:15:05.826Z,102011.94
2023-04-30T00:17:35.743Z,102014.16
2023-04-30T00:20:05.687Z,102007.91
2023-04-30T00:22:36.692Z,102015.81
2023-04-30T00:25:09.681Z,102011.56
2023-04-30T00:27:40.874Z,102016.53
2023-04-30T00:30:11.848Z,102025.53
2023-04-30T00:32:41.819Z,102031.81
2023-04-30T00:35:12.782Z,102030.25
2023-04-30T00:37:45.308Z,102024.88
2023-04-30T00:40:18.603Z,102037.41
2023-04-30T00:42:48.895Z,102033.34
2023-04-30T00:45:22.320Z,102033.34
2023-04-30T00:47:52.884Z,102033.91
2023-04-30T00:50:23.384Z,102031.78
2023-04-30T00:52:53.681Z,102028.81
2023-04-30T00:55:26.488Z,102027.78
2023-04-30T00:57:56.795Z,102025.91
2023-04-30T01:00:28.071Z,102025.69
2023-04-30T01:02:59.464Z,102026.22
2023-04-30T01:05:29.545Z,102031.13
2023-04-30T01:08:00.224Z,102023.56
2023-04-30T01:10:39.281Z,102021.94
2023-04-30T01:13:13.602Z,102032.28
2023-04-30T01:15:57.898Z,102024.72
2023-04-30T01:18:32.742Z,102021.72
2023-04-30T01:21:06.048Z,102020.41
2023-04-30T01:23:58.018Z,102017.72
2023-04-30T01:26:51.596Z,102015.03
2023-04-30T01:29:25.677Z,102021.31
2023-04-30T01:31:55.770Z,102013.72
2023-04-30T01:34:25.664Z,102010.75
2023-04-30T01:37:07.315Z,102012.13
2023-04-30T01:39:56.846Z,102010.81
2023-04-30T01:42:33.954Z,102018.16
2023-04-30T01:45:23.393Z,102013.59
2023-04-30T01:48:00.554Z,102013.59
2023-04-30T01:50:40.641Z,102016.56
2023-04-30T01:53:16.947Z,102016.84
2023-04-30T01:55:51.362Z,102008.47
2023-04-30T01:58:22.133Z,102019.88
2023-04-30T02:00:55.121Z,102025.56
2023-04-30T02:03:25.272Z,102017.47
2023-04-30T02:05:56.368Z,102026.69
2023-04-30T02:08:27.375Z,102034.28
2023-04-30T02:10:57.436Z,102025.63
2023-04-30T02:13:27.290Z,102026.16
2023-04-30T02:15:59.878Z,102031.06
2023-04-30T02:18:30.015Z,102024.31
2023-04-30T02:21:00.609Z,102025.66
2023-04-30T02:23:30.515Z,102027.84
2023-04-30T02:26:00.537Z,102025.41
2023-04-30T02:28:30.478Z,102027.88
2023-04-30T02:31:03.340Z,102024.63
2023-04-30T02:33:33.269Z,102018.97
2023-04-30T02:36:04.183Z,102013.28
2023-04-30T02:38:34.308Z,102022.78
2023-04-30T02:41:04.268Z,102019.84
2023-04-30T02:43:34.082Z,102020.38
2023-04-30T02:46:07.031Z,102028.28
2023-04-30T02:48:38.022Z,102028.28
2023-04-30T02:51:08.602Z,102025.84
2023-04-30T02:53:38.577Z,102026.94
2023-04-30T02:56:09.967Z,102027.50
2023-04-30T02:58:40.165Z,102022.38
2023-04-30T03:01:12.835Z,102021.81
2023-04-30T03:03:42.888Z,102018.84
2023-04-30T03:06:12.933Z,102017.75
2023-04-30T03:08:42.830Z,102012.09
2023-04-30T03:11:12.750Z,102006.69
2023-04-30T03:13:42.810Z,102005.88
2023-04-30T03:16:15.367Z,102009.41
2023-04-30T03:18:45.233Z,102008.31
2023-04-30T03:21:15.064Z,102008.31
2023-04-30T03:23:45.101Z,102010.19
2023-04-30T03:26:15.315Z,102009.63
2023-04-30T03:28:45.132Z,102014.00
2023-04-30T03:31:17.618Z,102008.59
2023-04-30T03:33:47.572Z,102012.63
2023-04-30T03:36:17.397Z,102007.50
2023-04-30T03:38:47.269Z,102015.63
2023-04-30T03:41:17.080Z,102018.31
2023-04-30T03:43:46.921Z,102012.09
2023-04-30T03:46:19.716Z,102018.06
2023-04-30T03:48:49.757Z,102016.97
2023-04-30T03:51:20.041Z,102027.56
2023-04-30T03:53:49.828Z,102022.69
2023-04-30T03:56:19.706Z,102022.13
2023-04-30T03:58:49.591Z,102028.38
2023-04-30T04:01:22.287Z,102020.53
2023-04-30T04:03:52.607Z,102018.91
2023-04-30T04:06:22.878Z,102022.69
2023-04-30T04:08:53.323Z,102024.31
2023-04-30T04:11:23.837Z,102022.16
2023-04-30T04:13:53.814Z,102028.66
2023-04-30T04:16:27.082Z,102027.56
2023-04-30T04:18:56.969Z,102027.31
2023-04-30T04:21:27.254Z,102034.63
2023-04-30T04:23:57.390Z,102030.81
2023-04-30T04:26:29.156Z,102029.19
2023-04-30T04:28:59.018Z,102034.63
2023-04-30T04:31:31.788Z,102034.63
2023-04-30T04:34:02.961Z,102035.66
2023-04-30T04:36:34.360Z,102027.28
2023-04-30T04:39:04.849Z,102037.31
2023-04-30T04:41:36.554Z,102041.63
2023-04-30T04:44:06.714Z,102041.09
2023-04-30T04:46:42.542Z,102041.09
2023-04-30T04:49:12.852Z,102039.47
2023-04-30T04:51:42.715Z,102047.03
2023-04-30T04:54:12.692Z,102042.19
2023-04-30T04:56:42.712Z,102044.06
2023-04-30T04:59:12.722Z,102043.78
2023-04-30T05:01:48.404Z,102043.78
2023-04-30T05:04:18.306Z,102043.78
2023-04-30T05:06:48.591Z,102042.72
2023-04-30T05:09:18.583Z,102054.63
2023-04-30T05:11:49.364Z,102047.59
2023-04-30T05:14:21.082Z,102055.16
2023-04-30T05:16:53.678Z,102054.31
2023-04-30T05:19:23.538Z,102053.53
2023-04-30T05:21:53.427Z,102045.16
2023-04-30T05:24:23.570Z,102045.97
2023-04-30T05:26:53.588Z,102044.34
2023-04-30T05:29:23.414Z,102049.22
2023-04-30T05:31:56.292Z,102052.44
2023-04-30T05:34:26.291Z,102051.91
2023-04-30T05:36:56.631Z,102058.13
2023-04-30T05:39:26.734Z,102054.06
2023-04-30T05:41:58.961Z,102064.38
2023-04-30T05:44:30.604Z,102061.66
2023-04-30T05:47:03.072Z,102068.69
2023-04-30T05:49:34.418Z,102060.59
2023-04-30T05:52:06.005Z,102061.38
2023-04-30T05:54:37.108Z,102064.38
2023-04-30T05:57:07.133Z,102067.63
2023-04-30T05:59:37.081Z,102069.78
2023-04-30T06:02:09.903Z,102067.38
2023-04-30T06:04:39.865Z,102069.25
2023-04-30T06:07:09.755Z,102069.25
2023-04-30T06:09:39.594Z,102068.16
2023-04-30T06:12:09.551Z,102067.91
2023-04-30T06:14:40.099Z,102066.81
2023-04-30T06:17:12.917Z,102062.75
2023-04-30T06:19:42.813Z,102065.44
2023-04-30T06:22:12.703Z,102061.63
2023-04-30T06:24:42.609Z,102060.78
2023-04-30T06:27:12.585Z,102057.22
2023-04-30T06:29:42.481Z,102061.19
2023-04-30T06:32:15.115Z,102059.19
2023-04-30T06:34:45.280Z,102057.34
2023-04-30T06:37:15.245Z,102061.97
2023-04-30T06:39:45.079Z,102061.69
2023-04-30T06:42:14.935Z,102065.03
2023-04-30T06:44:45.865Z,102059.38
2023-04-30T06:47:18.669Z,102061.56
2023-04-30T06:49:49.668Z,102056.06
2023-04-30T06:52:19.572Z,102054.25
2023-04-30T06:54:49.488Z,102059.41
2023-04-30T06:57:19.440Z,102061.75
2023-04-30T06:59:50.350Z,102053.81
2023-04-30T07:02:22.922Z,102051.25
2023-04-30T07:04:52.842Z,102052.22
2023-04-30T07:07:23.419Z,102048.13
2023-04-30T07:09:53.944Z,102044.13
2023-04-30T07:12:24.549Z,102039.59
2023-04-30T07:14:54.562Z,102042.78
2023-04-30T07:17:27.898Z,102041.72
2023-04-30T07:19:57.918Z,102050.94
2023-04-30T07:22:28.170Z,102048.19
2023-04-30T07:24:58.448Z,102037.72
2023-04-30T07:27:28.643Z,102048.25
2023-04-30T07:29:58.563Z,102036.56
2023-04-30T07:32:31.149Z,102041.47
2023-04-30T07:35:01.354Z,102043.28
2023-04-30T07:37:32.564Z,102043.00
2023-04-30T07:40:10.402Z,102045.41
2023-04-30T07:42:42.976Z,102042.41
2023-04-30T07:45:14.165Z,102046.75
2023-04-30T07:47:47.878Z,102046.78
2023-04-30T07:50:18.627Z,102042.06
2023-04-30T07:52:48.596Z,102039.34
2023-04-30T07:55:18.823Z,102043.63
2023-04-30T07:57:50.644Z,102041.97
2023-04-30T08:00:20.777Z,102045.44
2023-04-30T08:02:53.616Z,102054.84
2023-04-30T08:05:23.842Z,102041.09
2023-04-30T08:07:53.819Z,102041.50
2023-04-30T08:10:23.790Z,102058.44
2023-04-30T08:12:53.806Z,102043.63
2023-04-30T08:15:27.328Z,102046.59
2023-04-30T08:18:01.272Z,102049.03
2023-04-30T08:20:32.254Z,102049.50
2023-04-30T08:23:02.512Z,102050.66
2023-04-30T08:25:32.923Z,102044.06
2023-04-30T08:28:02.917Z,102041.00
2023-04-30T08:30:32.823Z,102041.72
2023-04-30T08:33:05.756Z,102042.91
2023-04-30T08:35:35.766Z,102043.41
2023-04-30T08:38:05.804Z,102037.25
2023-04-30T08:40:51.166Z,102047.13
2023-04-30T08:43:22.935Z,102043.00
2023-04-30T08:45:55.022Z,102032.94
2023-04-30T08:48:29.097Z,102034.09
2023-04-30T08:50:59.120Z,102031.81
2023-04-30T08:53:29.024Z,102033.28
2023-04-30T08:55:58.953Z,102030.38
2023-04-30T08:58:28.955Z,102039.56
2023-04-30T09:01:01.415Z,102042.34
2023-04-30T09:03:34.187Z,102034.97
2023-04-30T09:06:04.535Z,102031.91
2023-04-30T09:08:47.857Z,102032.84
2023-04-30T09:11:25.658Z,102032.13
2023-04-30T09:13:59.178Z,102017.66
2023-04-30T09:16:31.429Z,102026.13
2023-04-30T09:19:04.318Z,102020.25
2023-04-30T09:21:37.722Z,102021.06
2023-04-30T09:24:08.965Z,102021.06
2023-04-30T09:26:40.692Z,102021.25
2023-04-30T09:29:11.005Z,102016.13
2023-04-30T09:31:42.011Z,101999.63
2023-04-30T09:34:14.761Z,102006.69
2023-04-30T09:36:56.771Z,101997.34
2023-04-30T09:39:26.931Z,101995.13
2023-04-30T09:42:10.628Z,101994.47
2023-04-30T09:44:41.775Z,101990.25
2023-04-30T09:47:16.028Z,101983.97
2023-04-30T09:49:54.055Z,101990.06
2023-04-30T09:52:24.884Z,101980.41
2023-04-30T09:54:55.012Z,101968.94
2023-04-30T09:57:27.373Z,101972.72
2023-04-30T09:59:58.582Z,101964.88
2023-04-30T10:02:29.526Z,101963.25
2023-04-30T10:05:03.623Z,101966.47
2023-04-30T10:07:39.278Z,101973.34
2023-04-30T10:10:12.155Z,101968.19
2023-04-30T10:12:46.450Z,101962.16
2023-04-30T10:15:20.685Z,101959.94
2023-04-30T10:17:53.703Z,101966.34
2023-04-30T10:20:29.768Z,101960.81
2023-04-30T10:23:00.368Z,101963.38
2023-04-30T10:25:31.962Z,101964.13
2023-04-30T10:28:03.957Z,101947.75
2023-04-30T10:30:35.934Z,101939.25
2023-04-30T10:33:16.274Z,101950.94
2023-04-30T10:35:52.971Z,101953.31
2023-04-30T10:38:26.936Z,101951.75
2023-04-30T10:41:02.053Z,101944.53
2023-04-30T10:43:35.630Z,101941.59
2023-04-30T10:46:06.143Z,101934.47
2023-04-30T10:48:38.170Z,101935.66
2023-04-30T10:51:12.196Z,101927.81
2023-04-30T10:53:45.860Z,101929.59
2023-04-30T10:56:16.376Z,101937.88
2023-04-30T10:58:46.671Z,101930.34
2023-04-30T11:01:18.534Z,101925.19
2023-04-30T11:04:08.434Z,101923.50
2023-04-30T11:07:05.219Z,101923.28
2023-04-30T11:09:40.598Z,101909.84
2023-04-30T11:12:15.937Z,101905.81
2023-04-30T11:14:47.546Z,101897.00
2023-04-30T11:17:26.483Z,101894.06
2023-04-30T11:19:57.970Z,101901.56
2023-04-30T11:22:36.433Z,101906.66
2023-04-30T11:25:09.747Z,101901.75
2023-04-30T11:27:42.366Z,101886.84
2023-04-30T11:30:16.985Z,101889.56
2023-04-30T11:32:48.993Z,101884.78
2023-04-30T11:35:21.987Z,101891.00
2023-04-30T11:37:58.612Z,101897.03
2023-04-30T11:40:29.728Z,101890.19
2023-04-30T11:42:59.792Z,101881.31
2023-04-30T11:45:30.630Z,101888.53
2023-04-30T11:48:01.151Z,101879.09
2023-04-30T11:50:36.741Z,101885.25
2023-04-30T11:53:09.710Z,101877.38
2023-04-30T11:55:40.573Z,101870.91
2023-04-30T11:58:13.665Z,101887.06
2023-04-30T12:00:44.148Z,101886.38
2023-04-30T12:03:18.379Z,101885.91
2023-04-30T12:05:50.280Z,101867.22
2023-04-30T12:08:23.361Z,101866.88
2023-04-30T12:10:53.237Z,101864.94
2023-04-30T12:13:23.327Z,101871.31
2023-04-30T12:16:03.635Z,101862.84
2023-04-30T12:18:36.588Z,101857.66
2023-04-30T12:21:07.330Z,101855.13
2023-04-30T12:23:40.289Z,101845.91
2023-04-30T12:26:10.558Z,101854.00
2023-04-30T12:28:42.313Z,101845.31
2023-04-30T12:31:12.877Z,101843.69
2023-04-30T12:33:43.144Z,101854.09
2023-04-30T12:36:14.271Z,101838.34
2023-04-30T12:38:50.288Z,101840.75
2023-04-30T12:41:21.447Z,101839.97
2023-04-30T12:43:52.189Z,101840.44
2023-04-30T12:46:29.895Z,101844.28
2023-04-30T12:49:01.193Z,101839.25
2023-04-30T12:51:33.318Z,101836.56
2023-04-30T12:54:06.618Z,101835.41
2023-04-30T12:56:36.544Z,101838.28
2023-04-30T12:59:06.457Z,101839.78
2023-04-30T13:01:36.534Z,101834.28
2023-04-30T13:04:06.588Z,101829.59
2023-04-30T13:06:36.839Z,101828.78
2023-04-30T13:09:12.660Z,101829.97
2023-04-30T13:11:42.508Z,101818.63
2023-04-30T13:14:13.282Z,101811.13
2023-04-30T13:16:43.311Z,101808.44
2023-04-30T13:19:13.251Z,101805.97
2023-04-30T13:21:43.699Z,101807.50
2023-04-30T13:24:16.317Z,101806.00
2023-04-30T13:26:46.413Z,101810.44
2023-04-30T13:29:16.274Z,101800.56
2023-04-30T13:31:46.215Z,101797.38
2023-04-30T13:34:16.402Z,101792.50
2023-04-30T13:36:47.197Z,101795.69
2023-04-30T13:39:20.120Z,101791.72
2023-04-30T13:41:49.961Z,101787.00
2023-04-30T13:44:20.129Z,101787.06
2023-04-30T13:46:50.692Z,101782.72
2023-04-30T13:49:21.107Z,101780.69
2023-04-30T13:51:51.206Z,101781.91
2023-04-30T13:54:23.860Z,101776.63
2023-04-30T13:56:56.222Z,101776.50
2023-04-30T13:59:26.417Z,101777.44
2023-04-30T14:01:56.288Z,101772.28
2023-04-30T14:04:26.219Z,101775.84
2023-04-30T14:06:56.870Z,101774.94
2023-04-30T14:09:29.673Z,101764.47
2023-04-30T14:12:00.426Z,101771.91
2023-04-30T14:14:31.254Z,101771.91
2023-04-30T14:17:01.497Z,101760.56
2023-04-30T14:19:31.224Z,101760.94
2023-04-30T14:22:01.206Z,101756.59
2023-04-30T14:24:34.665Z,101753.38
2023-04-30T14:27:04.661Z,101754.16
2023-04-30T14:29:34.679Z,101754.50
2023-04-30T14:32:05.018Z,101749.81
2023-04-30T14:34:35.010Z,101749.09
2023-04-30T14:37:06.005Z,101751.81
2023-04-30T14:39:38.582Z,101735.09
2023-04-30T14:42:09.070Z,101729.38
2023-04-30T14:44:40.228Z,101734.75
2023-04-30T14:47:10.166Z,101745.44
2023-04-30T14:49:52.586Z,101737.22
2023-04-30T14:52:22.979Z,101733.41
2023-04-30T14:54:56.266Z,101729.09
2023-04-30T14:57:27.608Z,101733.97
2023-04-30T15:00:00.622Z,101732.78
2023-04-30T15:02:30.998Z,101724.06
2023-04-30T15:05:01.092Z,101720.84
2023-04-30T15:07:30.912Z,101715.31
2023-04-30T15:10:03.856Z,101723.06
2023-04-30T15:12:34.721Z,101720.53
2023-04-30T15:15:04.902Z,101713.50
2023-04-30T15:17:37.160Z,101710.38
2023-04-30T15:20:08.333Z,101713.50
2023-04-30T15:22:38.465Z,101713.41
2023-04-30T15:25:11.994Z,101707.00
2023-04-30T15:27:42.022Z,101700.28
2023-04-30T15:30:13.583Z,101696.75
2023-04-30T15:32:43.706Z,101697.81
2023-04-30T15:35:13.576Z,101692.25
2023-04-30T15:37:43.514Z,101682.63
2023-04-30T15:40:16.498Z,101679.00
2023-04-30T15:42:46.977Z,101666.72
2023-04-30T15:45:16.983Z,101679.59
2023-04-30T15:47:47.180Z,101670.13
2023-04-30T15:50:17.027Z,101680.44
2023-04-30T15:52:46.960Z,101680.53
2023-04-30T15:55:19.622Z,101671.09
2023-04-30T15:57:49.540Z,101664.69
2023-04-30T16:00:19.886Z,101664.56
2023-04-30T16:02:50.253Z,101659.69
2023-04-30T16:05:20.260Z,101659.03
2023-04-30T16:07:50.325Z,101661.53
2023-04-30T16:10:23.246Z,101651.13
2023-04-30T16:12:53.267Z,101659.09
2023-04-30T16:15:24.459Z,101659.25
2023-04-30T16:17:55.905Z,101655.72
2023-04-30T16:20:27.518Z,101653.69
2023-04-30T16:22:57.899Z,101650.56
2023-04-30T16:25:30.652Z,101652.97
2023-04-30T16:28:00.663Z,101649.06
2023-04-30T16:30:30.729Z,101647.09
2023-04-30T16:33:00.611Z,101650.56
2023-04-30T16:35:30.629Z,101653.69
2023-04-30T16:38:01.460Z,101640.50
2023-04-30T16:40:33.985Z,101641.63
2023-04-30T16:43:06.322Z,101646.34
2023-04-30T16:45:36.372Z,101644.00
2023-04-30T16:48:06.579Z,101640.50
2023-04-30T16:50:36.586Z,101651.03
2023-04-30T16:53:07.087Z,101648.97
2023-04-30T16:55:40.733Z,101643.78
2023-04-30T16:58:10.584Z,101642.78
2023-04-30T17:00:40.485Z,101644.66
2023-04-30T17:03:10.522Z,101649.66
2023-04-30T17:05:40.826Z,101641.59
2023-04-30T17:08:10.682Z,101651.03
2023-04-30T17:10:45.056Z,101638.25
2023-04-30T17:13:15.546Z,101641.22
2023-04-30T17:15:46.617Z,101638.03
2023-04-30T17:18:16.605Z,101633.97
2023-04-30T17:20:47.016Z,101633.56
2023-04-30T17:23:17.154Z,101632.97
2023-04-30T17:25:50.815Z,101620.63
2023-04-30T17:28:20.868Z,101625.50
2023-04-30T17:30:51.007Z,101622.50
2023-04-30T17:33:21.083Z,101612.59
2023-04-30T17:35:51.131Z,101616.41
2023-04-30T17:38:22.312Z,101617.31
2023-04-30T17:40:56.835Z,101609.75
2023-04-30T17:43:27.033Z,101621.53
2023-04-30T17:45:57.508Z,101620.50
2023-04-30T17:48:27.604Z,101611.38
2023-04-30T17:50:57.821Z,101607.03
2023-04-30T17:53:27.813Z,101608.97
2023-04-30T17:56:00.324Z,101609.19
2023-04-30T17:58:30.635Z,101610.50
2023-04-30T18:01:01.858Z,101611.81
2023-04-30T18:03:32.768Z,101610.09
2023-04-30T18:06:02.977Z,101600.66
2023-04-30T18:08:32.910Z,101610.50
2023-04-30T18:11:05.726Z,101607.75
2023-04-30T18:13:37.209Z,101607.75
2023-04-30T18:16:08.328Z,101604.56
2023-04-30T18:18:38.297Z,101602.78
2023-04-30T18:21:08.838Z,101606.66
2023-04-30T18:23:38.661Z,101606.94
2023-04-30T18:26:11.591Z,101612.56
2023-04-30T18:28:42.096Z,101605.38
2023-04-30T18:31:12.185Z,101614.31
2023-04-30T18:33:42.118Z,101612.69
2023-04-30T18:36:12.141Z,101612.59
2023-04-30T18:38:42.180Z,101607.78
2023-04-30T18:41:14.838Z,101599.72
2023-04-30T18:43:45.994Z,101610.03
2023-04-30T18:46:22.706Z,101613.25
2023-04-30T18:48:52.746Z,101610.56
2023-04-30T18:51:22.776Z,101602.72
2023-04-30T18:53:53.165Z,101603.56
2023-04-30T18:56:25.815Z,101609.84
2023-04-30T18:58:55.699Z,101614.47
2023-04-30T19:01:27.579Z,101611.41
2023-04-30T19:03:57.549Z,101615.91
2023-04-30T19:06:27.639Z,101609.50
2023-04-30T19:08:59.984Z,101610.59
2023-04-30T19:11:35.836Z,101614.84
2023-04-30T19:14:08.032Z,101613.03
2023-04-30T19:16:37.969Z,101610.28
2023-04-30T19:19:07.823Z,101616.00
2023-04-30T19:21:37.729Z,101621.06
2023-04-30T19:24:07.894Z,101626.34
2023-04-30T19:26:42.653Z,101617.88
2023-04-30T19:29:12.649Z,101621.88
2023-04-30T19:31:42.677Z,101627.94
2023-04-30T19:34:13.998Z,101620.75
2023-04-30T19:36:44.365Z,101628.06
2023-04-30T19:39:15.767Z,101627.00
2023-04-30T19:41:48.423Z,101635.91
2023-04-30T19:44:20.388Z,101636.56
2023-04-30T19:46:50.382Z,101630.63
2023-04-30T19:49:20.362Z,101632.22
2023-04-30T19:51:50.229Z,101626.59
2023-04-30T19:54:20.228Z,101623.31
2023-04-30T19:56:53.675Z,101626.38
2023-04-30T19:59:23.930Z,101634.91
2023-04-30T20:01:54.401Z,101628.03
2023-04-30T20:04:26.655Z,101624.56
2023-04-30T20:06:57.650Z,101625.25
2023-04-30T20:09:28.100Z,101619.63
2023-04-30T20:12:01.759Z,101621.81
2023-04-30T20:14:31.582Z,101620.75
2023-04-30T20:17:02.717Z,101623.53
2023-04-30T20:19:32.896Z,101625.13
2023-04-30T20:22:04.920Z,101626.78
2023-04-30T20:24:34.890Z,101621.28
2023-04-30T20:27:07.699Z,101628.09
2023-04-30T20:29:40.211Z,101623.97
2023-04-30T20:32:10.505Z,101627.34
2023-04-30T20:34:40.507Z,101626.91
2023-04-30T20:37:10.384Z,101619.00
2023-04-30T20:39:41.705Z,101624.50
2023-04-30T20:42:14.225Z,101617.06
2023-04-30T20:44:44.070Z,101614.34
2023-04-30T20:47:14.585Z,101611.78
2023-04-30T20:49:45.162Z,101611.50
2023-04-30T20:52:15.476Z,101610.06
2023-04-30T20:54:45.936Z,101610.75
2023-04-30T20:57:20.816Z,101615.78
2023-04-30T20:59:50.681Z,101605.47
2023-04-30T21:02:20.728Z,101612.09
2023-04-30T21:04:50.702Z,101612.16
2023-04-30T21:07:20.710Z,101611.19
2023-04-30T21:09:51.006Z,101601.72
2023-04-30T21:12:23.809Z,101601.59
2023-04-30T21:14:54.542Z,101601.63
2023-04-30T21:17:24.583Z,101597.34
2023-04-30T21:19:55.282Z,101605.28
2023-04-30T21:22:25.551Z,101597.56
2023-04-30T21:24:57.182Z,101596.63
2023-04-30T21:27:29.604Z,101583.59
2023-04-30T21:29:59.461Z,101583.19
2023-04-30T21:32:29.469Z,101587.53
2023-04-30T21:34:59.720Z,101586.94
2023-04-30T21:37:29.521Z,101588.72
2023-04-30T21:39:59.534Z,101587.63
2023-04-30T21:42:32.062Z,101588.88
2023-04-30T21:45:01.940Z,101579.25
2023-04-30T21:47:31.939Z,101586.06
2023-04-30T21:50:02.001Z,101576.53
2023-04-30T21:52:32.122Z,101575.63
2023-04-30T21:55:02.211Z,101569.97
2023-04-30T21:57:34.870Z,101567.91
2023-04-30T22:00:05.737Z,101560.34
2023-04-30T22:02:36.177Z,101564.88
2023-04-30T22:05:06.645Z,101558.13
2023-04-30T22:07:36.767Z,101554.44
2023-04-30T22:10:08.084Z,101549.94
2023-04-30T22:12:40.865Z,101546.56
2023-04-30T22:15:12.383Z,101552.03
2023-04-30T22:17:42.620Z,101536.94
2023-04-30T22:20:13.148Z,101546.25
2023-04-30T22:22:43.114Z,101541.44
2023-04-30T22:25:13.179Z,101543.69
2023-04-30T22:27:45.938Z,101533.41
2023-04-30T22:30:19.251Z,101528.59
2023-04-30T22:32:49.202Z,101529.72
2023-04-30T22:35:19.892Z,101528.09
2023-04-30T22:37:49.836Z,101526.97
2023-04-30T22:40:20.760Z,101528.09
2023-04-30T22:42:53.902Z,101530.38
2023-04-30T22:45:23.896Z,101530.69
2023-04-30T22:47:55.396Z,101525.56
2023-04-30T22:50:25.404Z,101528.44
2023-04-30T22:52:56.969Z,101528.59
2023-04-30T22:55:27.399Z,101529.25
2023-04-30T22:58:01.876Z,101523.28
2023-04-30T23:00:31.996Z,101524.41
2023-04-30T23:03:01.940Z,101522.50
2023-04-30T23:05:31.969Z,101524.72
2023-04-30T23:08:01.899Z,101521.66
2023-04-30T23:10:31.974Z,101521.19
2023-04-30T23:13:04.775Z,101517.97
2023-04-30T23:15:34.591Z,101510.09
2023-04-30T23:18:05.480Z,101507.50
2023-04-30T23:20:35.484Z,101508.78
2023-04-30T23:23:06.054Z,101511.22
2023-04-30T23:25:35.918Z,101510.09
2023-04-30T23:28:08.519Z,101503.97
2023-04-30T23:30:41.067Z,101496.91
2023-04-30T23:33:11.001Z,101505.75
2023-04-30T23:35:45.948Z,101503.03
2023-04-30T23:38:16.426Z,101495.66
2023-04-30T23:40:47.500Z,101494.84
2023-04-30T23:43:19.876Z,101493.25
2023-04-30T23:45:49.839Z,101492.41
2023-04-30T23:48:19.795Z,101491.13
2023-04-30T23:50:49.831Z,101486.00
2023-04-30T23:53:19.852Z,101486.34
2023-04-30T23:55:49.841Z,101472.50
2023-04-30T23:58:22.295Z,101475.69
